sensor_id;sensor_type;location;lat;lon;timestamp;P1;P2;P0
56069;PMS5003;41944;52.078;-0.058;2022-09-23T00:00:10;18;16;
56069;PMS5003;41944;52.078;-0.058;2022-09-23T00:02:38;17;15;
56069;PMS5003;41944;52.078;-0.058;2022-09-23T00:05:06;17;16;
56069;PMS5003;41944;52.078;-0.058;2022-09-23T00:07:34;16;16;
56069;PMS5003;41944;52.078;-0.058;2022-09-23T00:10:01;15;15;
56069;PMS5003;41944;52.078;-0.058;2022-09-23T00:12:28;16;16;
56069;PMS5003;41944;52.078;-0.058;2022-09-23T00:14:55;18;17;
56069;PMS5003;41944;52.078;-0.058;2022-09-23T00:17:22;17;16;
56069;PMS5003;41944;52.078;-0.058;2022-09-23T00:19:49;16;15;
56069;PMS5003;41944;52.078;-0.058;2022-09-23T00:22:17;19;17;
56069;PMS5003;41944;52.078;-0.058;2022-09-23T00:24:44;19;17;
56069;PMS5003;41944;52.078;-0.058;2022-09-23T00:27:10;18;18;
56069;PMS5003;41944;52.078;-0.058;2022-09-23T00:29:37;20;17;
56069;PMS5003;41944;52.078;-0.058;2022-09-23T00:32:04;18;17;
56069;PMS5003;41944;52.078;-0.058;2022-09-23T00:34:32;20;15;
56069;PMS5003;41944;52.078;-0.058;2022-09-23T00:36:59;16;16;
56069;PMS5003;41944;52.078;-0.058;2022-09-23T00:39:26;22;20;
56069;PMS5003;41944;52.078;-0.058;2022-09-23T00:41:53;22;19;
56069;PMS5003;41944;52.078;-0.058;2022-09-23T00:44:53;16;16;
56069;PMS5003;41944;52.078;-0.058;2022-09-23T00:47:22;24;22;
56069;PMS5003;41944;52.078;-0.058;2022-09-23T00:49:57;19;19;
56069;PMS5003;41944;52.078;-0.058;2022-09-23T00:52:29;21;21;
56069;PMS5003;41944;52.078;-0.058;2022-09-23T00:54:57;21;19;
56069;PMS5003;41944;52.078;-0.058;2022-09-23T00:57:28;18;17;
56069;PMS5003;41944;52.078;-0.058;2022-09-23T00:59:55;18;18;
56069;PMS5003;41944;52.078;-0.058;2022-09-23T01:02:23;21;18;
56069;PMS5003;41944;52.078;-0.058;2022-09-23T01:04:51;18;17;
56069;PMS5003;41944;52.078;-0.058;2022-09-23T01:07:19;17;17;
56069;PMS5003;41944;52.078;-0.058;2022-09-23T01:09:46;19;19;
56069;PMS5003;41944;52.078;-0.058;2022-09-23T01:12:17;21;21;
56069;PMS5003;41944;52.078;-0.058;2022-09-23T01:15:01;22;22;
56069;PMS5003;41944;52.078;-0.058;2022-09-23T01:17:36;21;21;
56069;PMS5003;41944;52.078;-0.058;2022-09-23T01:20:21;24;22;
56069;PMS5003;41944;52.078;-0.058;2022-09-23T01:23:05;27;25;
56069;PMS5003;41944;52.078;-0.058;2022-09-23T01:25:49;21;19;
56069;PMS5003;41944;52.078;-0.058;2022-09-23T01:28:34;23;23;
56069;PMS5003;41944;52.078;-0.058;2022-09-23T01:31:15;26;25;
56069;PMS5003;41944;52.078;-0.058;2022-09-23T01:33:49;26;26;
56069;PMS5003;41944;52.078;-0.058;2022-09-23T01:36:22;23;23;
56069;PMS5003;41944;52.078;-0.058;2022-09-23T01:38:56;26;24;
56069;PMS5003;41944;52.078;-0.058;2022-09-23T01:41:32;24;23;
56069;PMS5003;41944;52.078;-0.058;2022-09-23T01:44:12;24;22;
56069;PMS5003;41944;52.078;-0.058;2022-09-23T01:46:47;27;25;
56069;PMS5003;41944;52.078;-0.058;2022-09-23T01:49:18;26;25;
56069;PMS5003;41944;52.078;-0.058;2022-09-23T01:51:50;31;28;
56069;PMS5003;41944;52.078;-0.058;2022-09-23T01:54:23;27;26;
56069;PMS5003;41944;52.078;-0.058;2022-09-23T01:56:55;26;26;
56069;PMS5003;41944;52.078;-0.058;2022-09-23T01:59:28;28;27;
56069;PMS5003;41944;52.078;-0.058;2022-09-23T02:02:00;27;25;
56069;PMS5003;41944;52.078;-0.058;2022-09-23T02:04:33;28;26;
56069;PMS5003;41944;52.078;-0.058;2022-09-23T02:07:08;30;29;
56069;PMS5003;41944;52.078;-0.058;2022-09-23T02:09:40;27;24;
56069;PMS5003;41944;52.078;-0.058;2022-09-23T02:12:12;27;25;
56069;PMS5003;41944;52.078;-0.058;2022-09-23T02:14:44;24;24;
56069;PMS5003;41944;52.078;-0.058;2022-09-23T02:17:16;27;27;
56069;PMS5003;41944;52.078;-0.058;2022-09-23T02:19:49;29;26;
56069;PMS5003;41944;52.078;-0.058;2022-09-23T02:22:21;28;26;
56069;PMS5003;41944;52.078;-0.058;2022-09-23T02:24:53;21;21;
56069;PMS5003;41944;52.078;-0.058;2022-09-23T02:27:23;29;28;
56069;PMS5003;41944;52.078;-0.058;2022-09-23T02:29:56;31;27;
56069;PMS5003;41944;52.078;-0.058;2022-09-23T02:32:30;30;29;
56069;PMS5003;41944;52.078;-0.058;2022-09-23T02:35:04;30;27;
56069;PMS5003;41944;52.078;-0.058;2022-09-23T02:37:40;30;28;
56069;PMS5003;41944;52.078;-0.058;2022-09-23T02:40:13;28;28;
56069;PMS5003;41944;52.078;-0.058;2022-09-23T02:42:48;29;28;
56069;PMS5003;41944;52.078;-0.058;2022-09-23T02:45:22;28;28;
56069;PMS5003;41944;52.078;-0.058;2022-09-23T02:47:51;36;33;
56069;PMS5003;41944;52.078;-0.058;2022-09-23T02:50:21;31;30;
56069;PMS5003;41944;52.078;-0.058;2022-09-23T02:52:48;32;29;
56069;PMS5003;41944;52.078;-0.058;2022-09-23T02:55:16;37;31;
56069;PMS5003;41944;52.078;-0.058;2022-09-23T02:57:44;34;31;
56069;PMS5003;41944;52.078;-0.058;2022-09-23T03:00:12;24;23;
56069;PMS5003;41944;52.078;-0.058;2022-09-23T03:02:44;32;29;
56069;PMS5003;41944;52.078;-0.058;2022-09-23T03:05:23;34;32;
56069;PMS5003;41944;52.078;-0.058;2022-09-23T03:07:56;27;25;
56069;PMS5003;41944;52.078;-0.058;2022-09-23T03:10:38;29;27;
56069;PMS5003;41944;52.078;-0.058;2022-09-23T03:13:12;33;32;
56069;PMS5003;41944;52.078;-0.058;2022-09-23T03:15:46;32;32;
56069;PMS5003;41944;52.078;-0.058;2022-09-23T03:18:20;26;24;
56069;PMS5003;41944;52.078;-0.058;2022-09-23T03:20:56;28;28;
56069;PMS5003;41944;52.078;-0.058;2022-09-23T03:23:30;36;32;
56069;PMS5003;41944;52.078;-0.058;2022-09-23T03:26:01;32;31;
56069;PMS5003;41944;52.078;-0.058;2022-09-23T03:28:34;31;29;
56069;PMS5003;41944;52.078;-0.058;2022-09-23T03:31:03;35;30;
56069;PMS5003;41944;52.078;-0.058;2022-09-23T03:33:31;31;29;
56069;PMS5003;41944;52.078;-0.058;2022-09-23T03:36:01;29;27;
56069;PMS5003;41944;52.078;-0.058;2022-09-23T03:38:33;37;32;
56069;PMS5003;41944;52.078;-0.058;2022-09-23T03:41:03;29;29;
56069;PMS5003;41944;52.078;-0.058;2022-09-23T03:43:34;35;33;
56069;PMS5003;41944;52.078;-0.058;2022-09-23T03:46:02;33;32;
56069;PMS5003;41944;52.078;-0.058;2022-09-23T03:48:28;35;31;
56069;PMS5003;41944;52.078;-0.058;2022-09-23T03:50:55;33;30;
56069;PMS5003;41944;52.078;-0.058;2022-09-23T03:53:22;30;29;
56069;PMS5003;41944;52.078;-0.058;2022-09-23T03:55:49;30;30;
56069;PMS5003;41944;52.078;-0.058;2022-09-23T03:58:17;32;30;
56069;PMS5003;41944;52.078;-0.058;2022-09-23T04:00:44;31;31;
56069;PMS5003;41944;52.078;-0.058;2022-09-23T04:03:11;36;32;
56069;PMS5003;41944;52.078;-0.058;2022-09-23T04:05:38;33;33;
56069;PMS5003;41944;52.078;-0.058;2022-09-23T04:08:05;34;31;
56069;PMS5003;41944;52.078;-0.058;2022-09-23T04:10:32;32;32;
56069;PMS5003;41944;52.078;-0.058;2022-09-23T04:12:59;31;31;
56069;PMS5003;41944;52.078;-0.058;2022-09-23T04:15:26;33;30;
56069;PMS5003;41944;52.078;-0.058;2022-09-23T04:17:52;32;28;
56069;PMS5003;41944;52.078;-0.058;2022-09-23T04:20:20;31;31;
56069;PMS5003;41944;52.078;-0.058;2022-09-23T04:22:47;33;30;
56069;PMS5003;41944;52.078;-0.058;2022-09-23T04:25:14;32;32;
56069;PMS5003;41944;52.078;-0.058;2022-09-23T04:27:41;27;25;
56069;PMS5003;41944;52.078;-0.058;2022-09-23T04:30:09;28;26;
56069;PMS5003;41944;52.078;-0.058;2022-09-23T04:32:38;28;28;
56069;PMS5003;41944;52.078;-0.058;2022-09-23T04:35:05;32;32;
56069;PMS5003;41944;52.078;-0.058;2022-09-23T04:37:33;32;30;
56069;PMS5003;41944;52.078;-0.058;2022-09-23T04:40:00;33;31;
56069;PMS5003;41944;52.078;-0.058;2022-09-23T04:42:28;26;26;
56069;PMS5003;41944;52.078;-0.058;2022-09-23T04:44:55;29;28;
56069;PMS5003;41944;52.078;-0.058;2022-09-23T04:47:22;29;29;
56069;PMS5003;41944;52.078;-0.058;2022-09-23T04:49:50;25;25;
56069;PMS5003;41944;52.078;-0.058;2022-09-23T04:52:16;31;30;
56069;PMS5003;41944;52.078;-0.058;2022-09-23T04:54:44;38;35;
56069;PMS5003;41944;52.078;-0.058;2022-09-23T04:57:11;29;27;
56069;PMS5003;41944;52.078;-0.058;2022-09-23T04:59:39;31;30;
56069;PMS5003;41944;52.078;-0.058;2022-09-23T05:02:06;42;36;
56069;PMS5003;41944;52.078;-0.058;2022-09-23T05:04:33;32;32;
56069;PMS5003;41944;52.078;-0.058;2022-09-23T05:07:00;33;30;
56069;PMS5003;41944;52.078;-0.058;2022-09-23T05:09:28;35;32;
56069;PMS5003;41944;52.078;-0.058;2022-09-23T05:11:55;37;36;
56069;PMS5003;41944;52.078;-0.058;2022-09-23T05:14:22;34;30;
56069;PMS5003;41944;52.078;-0.058;2022-09-23T05:16:50;34;27;
56069;PMS5003;41944;52.078;-0.058;2022-09-23T05:19:17;31;30;
56069;PMS5003;41944;52.078;-0.058;2022-09-23T05:21:44;28;28;
56069;PMS5003;41944;52.078;-0.058;2022-09-23T05:24:10;38;35;
56069;PMS5003;41944;52.078;-0.058;2022-09-23T05:26:38;44;40;
56069;PMS5003;41944;52.078;-0.058;2022-09-23T05:29:05;34;32;
56069;PMS5003;41944;52.078;-0.058;2022-09-23T05:31:32;30;30;
56069;PMS5003;41944;52.078;-0.058;2022-09-23T05:34:00;33;30;
56069;PMS5003;41944;52.078;-0.058;2022-09-23T05:36:30;40;35;
56069;PMS5003;41944;52.078;-0.058;2022-09-23T05:38:59;33;33;
56069;PMS5003;41944;52.078;-0.058;2022-09-23T05:41:26;37;34;
56069;PMS5003;41944;52.078;-0.058;2022-09-23T05:43:54;36;31;
56069;PMS5003;41944;52.078;-0.058;2022-09-23T05:46:23;34;30;
56069;PMS5003;41944;52.078;-0.058;2022-09-23T05:48:53;37;33;
56069;PMS5003;41944;52.078;-0.058;2022-09-23T05:51:21;32;32;
56069;PMS5003;41944;52.078;-0.058;2022-09-23T05:53:49;32;32;
56069;PMS5003;41944;52.078;-0.058;2022-09-23T05:56:18;34;33;
56069;PMS5003;41944;52.078;-0.058;2022-09-23T05:58:47;34;28;
56069;PMS5003;41944;52.078;-0.058;2022-09-23T06:01:15;34;32;
56069;PMS5003;41944;52.078;-0.058;2022-09-23T06:03:44;40;36;
56069;PMS5003;41944;52.078;-0.058;2022-09-23T06:06:12;32;32;
56069;PMS5003;41944;52.078;-0.058;2022-09-23T06:08:40;29;28;
56069;PMS5003;41944;52.078;-0.058;2022-09-23T06:11:08;34;32;
56069;PMS5003;41944;52.078;-0.058;2022-09-23T06:13:36;40;37;
56069;PMS5003;41944;52.078;-0.058;2022-09-23T06:16:04;29;28;
56069;PMS5003;41944;52.078;-0.058;2022-09-23T06:18:33;31;30;
56069;PMS5003;41944;52.078;-0.058;2022-09-23T06:21:00;40;38;
56069;PMS5003;41944;52.078;-0.058;2022-09-23T06:23:28;28;28;
56069;PMS5003;41944;52.078;-0.058;2022-09-23T06:25:58;34;31;
56069;PMS5003;41944;52.078;-0.058;2022-09-23T06:28:27;32;32;
56069;PMS5003;41944;52.078;-0.058;2022-09-23T06:30:55;31;31;
56069;PMS5003;41944;52.078;-0.058;2022-09-23T06:33:29;28;28;
56069;PMS5003;41944;52.078;-0.058;2022-09-23T06:35:57;27;26;
56069;PMS5003;41944;52.078;-0.058;2022-09-23T06:38:25;30;29;
56069;PMS5003;41944;52.078;-0.058;2022-09-23T06:40:54;30;29;
56069;PMS5003;41944;52.078;-0.058;2022-09-23T06:43:22;44;43;
56069;PMS5003;41944;52.078;-0.058;2022-09-23T06:45:51;28;27;
56069;PMS5003;41944;52.078;-0.058;2022-09-23T06:48:19;30;26;
56069;PMS5003;41944;52.078;-0.058;2022-09-23T06:50:46;30;29;
56069;PMS5003;41944;52.078;-0.058;2022-09-23T06:53:13;31;30;
56069;PMS5003;41944;52.078;-0.058;2022-09-23T06:55:40;28;26;
56069;PMS5003;41944;52.078;-0.058;2022-09-23T06:58:08;30;27;
56069;PMS5003;41944;52.078;-0.058;2022-09-23T07:00:36;24;23;
56069;PMS5003;41944;52.078;-0.058;2022-09-23T07:03:05;32;32;
56069;PMS5003;41944;52.078;-0.058;2022-09-23T07:05:32;34;34;
56069;PMS5003;41944;52.078;-0.058;2022-09-23T07:07:59;37;34;
56069;PMS5003;41944;52.078;-0.058;2022-09-23T07:10:26;35;30;
56069;PMS5003;41944;52.078;-0.058;2022-09-23T07:12:53;30;28;
56069;PMS5003;41944;52.078;-0.058;2022-09-23T07:15:20;27;25;
56069;PMS5003;41944;52.078;-0.058;2022-09-23T07:17:47;37;35;
56069;PMS5003;41944;52.078;-0.058;2022-09-23T07:20:14;34;29;
56069;PMS5003;41944;52.078;-0.058;2022-09-23T07:22:41;35;31;
56069;PMS5003;41944;52.078;-0.058;2022-09-23T07:25:09;39;36;
56069;PMS5003;41944;52.078;-0.058;2022-09-23T07:27:36;35;32;
56069;PMS5003;41944;52.078;-0.058;2022-09-23T07:30:04;37;37;
56069;PMS5003;41944;52.078;-0.058;2022-09-23T07:32:32;42;36;
56069;PMS5003;41944;52.078;-0.058;2022-09-23T07:34:59;34;32;
56069;PMS5003;41944;52.078;-0.058;2022-09-23T07:37:27;36;35;
56069;PMS5003;41944;52.078;-0.058;2022-09-23T07:39:54;40;37;
56069;PMS5003;41944;52.078;-0.058;2022-09-23T07:42:26;42;39;
56069;PMS5003;41944;52.078;-0.058;2022-09-23T07:44:53;45;42;
56069;PMS5003;41944;52.078;-0.058;2022-09-23T07:47:20;38;32;
56069;PMS5003;41944;52.078;-0.058;2022-09-23T07:49:48;38;34;
56069;PMS5003;41944;52.078;-0.058;2022-09-23T07:52:15;41;37;
56069;PMS5003;41944;52.078;-0.058;2022-09-23T07:54:45;39;37;
56069;PMS5003;41944;52.078;-0.058;2022-09-23T07:57:12;37;33;
56069;PMS5003;41944;52.078;-0.058;2022-09-23T07:59:39;34;34;
56069;PMS5003;41944;52.078;-0.058;2022-09-23T08:02:07;38;33;
56069;PMS5003;41944;52.078;-0.058;2022-09-23T08:04:35;41;38;
56069;PMS5003;41944;52.078;-0.058;2022-09-23T08:07:03;42;40;
56069;PMS5003;41944;52.078;-0.058;2022-09-23T08:09:32;34;28;
56069;PMS5003;41944;52.078;-0.058;2022-09-23T08:12:03;31;29;
56069;PMS5003;41944;52.078;-0.058;2022-09-23T08:14:31;46;42;
56069;PMS5003;41944;52.078;-0.058;2022-09-23T08:16:58;40;37;
56069;PMS5003;41944;52.078;-0.058;2022-09-23T08:19:25;44;43;
56069;PMS5003;41944;52.078;-0.058;2022-09-23T08:21:52;40;37;
56069;PMS5003;41944;52.078;-0.058;2022-09-23T08:24:19;37;35;
56069;PMS5003;41944;52.078;-0.058;2022-09-23T08:26:47;36;34;
56069;PMS5003;41944;52.078;-0.058;2022-09-23T08:29:15;34;33;
56069;PMS5003;41944;52.078;-0.058;2022-09-23T08:31:43;47;38;
56069;PMS5003;41944;52.078;-0.058;2022-09-23T08:34:11;42;37;
56069;PMS5003;41944;52.078;-0.058;2022-09-23T08:36:38;34;33;
56069;PMS5003;41944;52.078;-0.058;2022-09-23T08:39:06;43;37;
56069;PMS5003;41944;52.078;-0.058;2022-09-23T08:41:36;34;32;
56069;PMS5003;41944;52.078;-0.058;2022-09-23T08:44:09;32;30;
56069;PMS5003;41944;52.078;-0.058;2022-09-23T08:46:39;35;33;
56069;PMS5003;41944;52.078;-0.058;2022-09-23T08:49:13;36;34;
56069;PMS5003;41944;52.078;-0.058;2022-09-23T08:51:46;32;29;
56069;PMS5003;41944;52.078;-0.058;2022-09-23T08:54:15;33;31;
56069;PMS5003;41944;52.078;-0.058;2022-09-23T08:56:50;35;31;
56069;PMS5003;41944;52.078;-0.058;2022-09-23T08:59:18;29;28;
56069;PMS5003;41944;52.078;-0.058;2022-09-23T09:01:50;27;23;
56069;PMS5003;41944;52.078;-0.058;2022-09-23T09:04:23;34;31;
56069;PMS5003;41944;52.078;-0.058;2022-09-23T09:06:58;29;26;
56069;PMS5003;41944;52.078;-0.058;2022-09-23T09:09:36;30;30;
56069;PMS5003;41944;52.078;-0.058;2022-09-23T09:12:08;34;28;
56069;PMS5003;41944;52.078;-0.058;2022-09-23T09:14:41;28;28;
56069;PMS5003;41944;52.078;-0.058;2022-09-23T09:17:17;32;27;
56069;PMS5003;41944;52.078;-0.058;2022-09-23T09:19:52;31;28;
56069;PMS5003;41944;52.078;-0.058;2022-09-23T09:22:21;34;29;
56069;PMS5003;41944;52.078;-0.058;2022-09-23T09:25:04;33;28;
56069;PMS5003;41944;52.078;-0.058;2022-09-23T09:27:43;32;30;
56069;PMS5003;41944;52.078;-0.058;2022-09-23T09:30:12;37;29;
56069;PMS5003;41944;52.078;-0.058;2022-09-23T09:32:41;29;25;
56069;PMS5003;41944;52.078;-0.058;2022-09-23T09:35:24;28;27;
56069;PMS5003;41944;52.078;-0.058;2022-09-23T09:37:59;28;28;
56069;PMS5003;41944;52.078;-0.058;2022-09-23T09:40:26;27;27;
56069;PMS5003;41944;52.078;-0.058;2022-09-23T09:42:53;35;31;
56069;PMS5003;41944;52.078;-0.058;2022-09-23T09:45:24;26;24;
56069;PMS5003;41944;52.078;-0.058;2022-09-23T09:48:01;32;28;
56069;PMS5003;41944;52.078;-0.058;2022-09-23T09:50:44;26;23;
56069;PMS5003;41944;52.078;-0.058;2022-09-23T09:53:19;25;23;
56069;PMS5003;41944;52.078;-0.058;2022-09-23T09:56:06;23;23;
56069;PMS5003;41944;52.078;-0.058;2022-09-23T09:58:36;17;17;
56069;PMS5003;41944;52.078;-0.058;2022-09-23T10:01:16;26;23;
56069;PMS5003;41944;52.078;-0.058;2022-09-23T10:03:45;25;23;
56069;PMS5003;41944;52.078;-0.058;2022-09-23T10:06:16;24;21;
56069;PMS5003;41944;52.078;-0.058;2022-09-23T10:08:47;28;23;
56069;PMS5003;41944;52.078;-0.058;2022-09-23T10:11:28;24;21;
56069;PMS5003;41944;52.078;-0.058;2022-09-23T10:14:00;23;20;
56069;PMS5003;41944;52.078;-0.058;2022-09-23T10:16:31;30;29;
56069;PMS5003;41944;52.078;-0.058;2022-09-23T10:19:00;24;19;
56069;PMS5003;41944;52.078;-0.058;2022-09-23T10:21:31;24;22;
56069;PMS5003;41944;52.078;-0.058;2022-09-23T10:24:02;25;23;
56069;PMS5003;41944;52.078;-0.058;2022-09-23T10:26:32;28;27;
56069;PMS5003;41944;52.078;-0.058;2022-09-23T10:29:03;30;27;
56069;PMS5003;41944;52.078;-0.058;2022-09-23T10:31:48;25;22;
56069;PMS5003;41944;52.078;-0.058;2022-09-23T10:34:19;21;21;
56069;PMS5003;41944;52.078;-0.058;2022-09-23T10:36:53;23;23;
56069;PMS5003;41944;52.078;-0.058;2022-09-23T10:39:21;22;18;
56069;PMS5003;41944;52.078;-0.058;2022-09-23T10:41:52;25;25;
56069;PMS5003;41944;52.078;-0.058;2022-09-23T10:44:29;26;25;
56069;PMS5003;41944;52.078;-0.058;2022-09-23T10:47:06;27;25;
56069;PMS5003;41944;52.078;-0.058;2022-09-23T10:50:01;28;27;
56069;PMS5003;41944;52.078;-0.058;2022-09-23T10:52:42;26;26;
56069;PMS5003;41944;52.078;-0.058;2022-09-23T10:55:23;25;24;
56069;PMS5003;41944;52.078;-0.058;2022-09-23T10:58:04;26;26;
56069;PMS5003;41944;52.078;-0.058;2022-09-23T11:01:21;27;25;
56069;PMS5003;41944;52.078;-0.058;2022-09-23T11:06:15;26;24;
56069;PMS5003;41944;52.078;-0.058;2022-09-23T11:08:55;24;23;
56069;PMS5003;41944;52.078;-0.058;2022-09-23T11:11:38;26;24;
56069;PMS5003;41944;52.078;-0.058;2022-09-23T11:14:18;29;25;
56069;PMS5003;41944;52.078;-0.058;2022-09-23T11:16:57;28;26;
56069;PMS5003;41944;52.078;-0.058;2022-09-23T11:19:52;23;23;
56069;PMS5003;41944;52.078;-0.058;2022-09-23T11:22:33;29;27;
56069;PMS5003;41944;52.078;-0.058;2022-09-23T11:25:15;28;27;
56069;PMS5003;41944;52.078;-0.058;2022-09-23T11:27:58;35;28;
56069;PMS5003;41944;52.078;-0.058;2022-09-23T11:30:37;23;23;
56069;PMS5003;41944;52.078;-0.058;2022-09-23T11:33:18;28;26;
56069;PMS5003;41944;52.078;-0.058;2022-09-23T11:35:57;27;23;
56069;PMS5003;41944;52.078;-0.058;2022-09-23T11:38:30;24;24;
56069;PMS5003;41944;52.078;-0.058;2022-09-23T11:41:11;23;22;
56069;PMS5003;41944;52.078;-0.058;2022-09-23T11:43:42;24;24;
56069;PMS5003;41944;52.078;-0.058;2022-09-23T11:46:14;26;22;
56069;PMS5003;41944;52.078;-0.058;2022-09-23T11:48:53;22;22;
56069;PMS5003;41944;52.078;-0.058;2022-09-23T11:51:25;26;23;
56069;PMS5003;41944;52.078;-0.058;2022-09-23T11:53:56;24;23;
56069;PMS5003;41944;52.078;-0.058;2022-09-23T11:56:29;25;25;
56069;PMS5003;41944;52.078;-0.058;2022-09-23T11:59:01;24;23;
56069;PMS5003;41944;52.078;-0.058;2022-09-23T12:01:36;24;21;
56069;PMS5003;41944;52.078;-0.058;2022-09-23T12:04:10;25;23;
56069;PMS5003;41944;52.078;-0.058;2022-09-23T12:06:48;27;23;
56069;PMS5003;41944;52.078;-0.058;2022-09-23T12:09:26;33;26;
56069;PMS5003;41944;52.078;-0.058;2022-09-23T12:12:02;30;25;
56069;PMS5003;41944;52.078;-0.058;2022-09-23T12:14:35;22;19;
56069;PMS5003;41944;52.078;-0.058;2022-09-23T12:17:19;22;19;
56069;PMS5003;41944;52.078;-0.058;2022-09-23T12:20:04;17;17;
56069;PMS5003;41944;52.078;-0.058;2022-09-23T12:22:49;18;18;
56069;PMS5003;41944;52.078;-0.058;2022-09-23T12:25:36;21;17;
56069;PMS5003;41944;52.078;-0.058;2022-09-23T12:28:11;18;17;
56069;PMS5003;41944;52.078;-0.058;2022-09-23T12:30:41;21;20;
56069;PMS5003;41944;52.078;-0.058;2022-09-23T12:33:15;18;18;
56069;PMS5003;41944;52.078;-0.058;2022-09-23T12:35:48;25;23;
56069;PMS5003;41944;52.078;-0.058;2022-09-23T12:38:17;23;23;
56069;PMS5003;41944;52.078;-0.058;2022-09-23T12:40:47;18;18;
56069;PMS5003;41944;52.078;-0.058;2022-09-23T12:43:15;20;20;
56069;PMS5003;41944;52.078;-0.058;2022-09-23T12:45:43;18;17;
56069;PMS5003;41944;52.078;-0.058;2022-09-23T12:48:25;18;18;
56069;PMS5003;41944;52.078;-0.058;2022-09-23T12:51:14;19;17;
56069;PMS5003;41944;52.078;-0.058;2022-09-23T12:53:49;13;13;
56069;PMS5003;41944;52.078;-0.058;2022-09-23T12:56:21;14;14;
56069;PMS5003;41944;52.078;-0.058;2022-09-23T12:58:58;10;10;
56069;PMS5003;41944;52.078;-0.058;2022-09-23T13:01:26;13;11;
56069;PMS5003;41944;52.078;-0.058;2022-09-23T13:04:00;12;12;
56069;PMS5003;41944;52.078;-0.058;2022-09-23T13:06:29;14;14;
56069;PMS5003;41944;52.078;-0.058;2022-09-23T13:09:02;16;16;
56069;PMS5003;41944;52.078;-0.058;2022-09-23T13:11:32;12;11;
56069;PMS5003;41944;52.078;-0.058;2022-09-23T13:14:02;12;11;
56069;PMS5003;41944;52.078;-0.058;2022-09-23T13:16:31;12;9;
56069;PMS5003;41944;52.078;-0.058;2022-09-23T13:19:00;13;11;
56069;PMS5003;41944;52.078;-0.058;2022-09-23T13:22:03;14;10;
56069;PMS5003;41944;52.078;-0.058;2022-09-23T13:24:35;11;11;
56069;PMS5003;41944;52.078;-0.058;2022-09-23T13:27:09;9;9;
56069;PMS5003;41944;52.078;-0.058;2022-09-23T13:29:41;14;11;
56069;PMS5003;41944;52.078;-0.058;2022-09-23T13:32:13;10;8;
56069;PMS5003;41944;52.078;-0.058;2022-09-23T13:34:42;5;5;
56069;PMS5003;41944;52.078;-0.058;2022-09-23T13:37:16;8;8;
56069;PMS5003;41944;52.078;-0.058;2022-09-23T13:39:46;10;8;
56069;PMS5003;41944;52.078;-0.058;2022-09-23T13:42:17;7;7;
56069;PMS5003;41944;52.078;-0.058;2022-09-23T13:44:50;9;8;
56069;PMS5003;41944;52.078;-0.058;2022-09-23T13:47:19;8;8;
56069;PMS5003;41944;52.078;-0.058;2022-09-23T13:49:46;6;5;
56069;PMS5003;41944;52.078;-0.058;2022-09-23T13:52:20;7;7;
56069;PMS5003;41944;52.078;-0.058;2022-09-23T13:54:51;11;9;
56069;PMS5003;41944;52.078;-0.058;2022-09-23T13:57:24;6;6;
56069;PMS5003;41944;52.078;-0.058;2022-09-23T13:59:52;4;4;
56069;PMS5003;41944;52.078;-0.058;2022-09-23T14:02:20;8;7;
56069;PMS5003;41944;52.078;-0.058;2022-09-23T14:04:47;6;6;
56069;PMS5003;41944;52.078;-0.058;2022-09-23T14:07:14;5;5;
56069;PMS5003;41944;52.078;-0.058;2022-09-23T14:09:44;7;5;
56069;PMS5003;41944;52.078;-0.058;2022-09-23T14:12:13;5;5;
56069;PMS5003;41944;52.078;-0.058;2022-09-23T14:14:42;5;4;
56069;PMS5003;41944;52.078;-0.058;2022-09-23T14:17:12;6;4;
56069;PMS5003;41944;52.078;-0.058;2022-09-23T14:19:42;6;4;
56069;PMS5003;41944;52.078;-0.058;2022-09-23T14:22:18;6;4;
56069;PMS5003;41944;52.078;-0.058;2022-09-23T14:24:48;4;4;
56069;PMS5003;41944;52.078;-0.058;2022-09-23T14:27:17;5;5;
56069;PMS5003;41944;52.078;-0.058;2022-09-23T14:29:49;5;5;
56069;PMS5003;41944;52.078;-0.058;2022-09-23T14:32:18;6;6;
56069;PMS5003;41944;52.078;-0.058;2022-09-23T14:34:48;6;6;
56069;PMS5003;41944;52.078;-0.058;2022-09-23T14:37:23;7;7;
56069;PMS5003;41944;52.078;-0.058;2022-09-23T14:39:53;10;8;
56069;PMS5003;41944;52.078;-0.058;2022-09-23T14:42:19;8;7;
56069;PMS5003;41944;52.078;-0.058;2022-09-23T14:44:47;15;14;
56069;PMS5003;41944;52.078;-0.058;2022-09-23T14:47:15;9;9;
56069;PMS5003;41944;52.078;-0.058;2022-09-23T14:49:45;9;9;
56069;PMS5003;41944;52.078;-0.058;2022-09-23T14:52:13;10;10;
56069;PMS5003;41944;52.078;-0.058;2022-09-23T14:54:40;10;9;
56069;PMS5003;41944;52.078;-0.058;2022-09-23T14:57:27;10;9;
56069;PMS5003;41944;52.078;-0.058;2022-09-23T14:59:57;10;9;
56069;PMS5003;41944;52.078;-0.058;2022-09-23T15:02:27;6;6;
56069;PMS5003;41944;52.078;-0.058;2022-09-23T15:05:14;11;9;
56069;PMS5003;41944;52.078;-0.058;2022-09-23T15:07:45;8;8;
56069;PMS5003;41944;52.078;-0.058;2022-09-23T15:10:17;11;9;
56069;PMS5003;41944;52.078;-0.058;2022-09-23T15:12:46;9;9;
56069;PMS5003;41944;52.078;-0.058;2022-09-23T15:15:13;10;10;
56069;PMS5003;41944;52.078;-0.058;2022-09-23T15:17:41;10;8;
56069;PMS5003;41944;52.078;-0.058;2022-09-23T15:20:16;9;9;
56069;PMS5003;41944;52.078;-0.058;2022-09-23T15:22:45;8;8;
56069;PMS5003;41944;52.078;-0.058;2022-09-23T15:25:15;9;9;
56069;PMS5003;41944;52.078;-0.058;2022-09-23T15:27:54;8;5;
56069;PMS5003;41944;52.078;-0.058;2022-09-23T15:30:23;7;7;
56069;PMS5003;41944;52.078;-0.058;2022-09-23T15:32:50;10;8;
56069;PMS5003;41944;52.078;-0.058;2022-09-23T15:35:18;8;7;
56069;PMS5003;41944;52.078;-0.058;2022-09-23T15:37:47;7;7;
56069;PMS5003;41944;52.078;-0.058;2022-09-23T15:40:18;10;9;
56069;PMS5003;41944;52.078;-0.058;2022-09-23T15:42:47;10;8;
56069;PMS5003;41944;52.078;-0.058;2022-09-23T15:45:15;8;7;
56069;PMS5003;41944;52.078;-0.058;2022-09-23T15:47:43;10;7;
56069;PMS5003;41944;52.078;-0.058;2022-09-23T15:50:10;10;10;
56069;PMS5003;41944;52.078;-0.058;2022-09-23T15:52:38;10;8;
56069;PMS5003;41944;52.078;-0.058;2022-09-23T15:55:10;8;8;
56069;PMS5003;41944;52.078;-0.058;2022-09-23T15:57:40;8;8;
56069;PMS5003;41944;52.078;-0.058;2022-09-23T16:00:08;9;9;
56069;PMS5003;41944;52.078;-0.058;2022-09-23T16:02:36;12;11;
56069;PMS5003;41944;52.078;-0.058;2022-09-23T16:05:04;9;9;
56069;PMS5003;41944;52.078;-0.058;2022-09-23T16:07:32;9;9;
56069;PMS5003;41944;52.078;-0.058;2022-09-23T16:09:59;6;6;
56069;PMS5003;41944;52.078;-0.058;2022-09-23T16:12:25;8;7;
56069;PMS5003;41944;52.078;-0.058;2022-09-23T16:14:52;9;7;
56069;PMS5003;41944;52.078;-0.058;2022-09-23T16:17:19;10;8;
56069;PMS5003;41944;52.078;-0.058;2022-09-23T16:19:46;7;7;
56069;PMS5003;41944;52.078;-0.058;2022-09-23T16:22:13;17;14;
56069;PMS5003;41944;52.078;-0.058;2022-09-23T16:24:41;9;6;
56069;PMS5003;41944;52.078;-0.058;2022-09-23T16:27:08;10;8;
56069;PMS5003;41944;52.078;-0.058;2022-09-23T16:29:38;7;7;
56069;PMS5003;41944;52.078;-0.058;2022-09-23T16:32:05;6;6;
56069;PMS5003;41944;52.078;-0.058;2022-09-23T16:34:32;10;8;